Latest Weather Observations for Whyalla

IDS60801

Issued at 4:31 pm CST Monday 26 June 2017 (issued every 30 minutes, with the page automatically refreshed every 10 minutes)

About weather observations | Map of weather stations | Latest weather observations for SA | Other Formats
Station Details ID: 018120 Name: WHYALLA AERO Lat: -33.05 Lon: 137.52 Height: 9.3 m
Data from the previous 72 hours. | See also: Recent months at Whyalla
Date/Time
CST
Temp
°C
App
Temp
°C
Dew
Point
°C
Rel
Hum
%
Delta-T
°C
Wind Press
QNH
hPa
Press
MSL
hPa
Rain since
9am
mm
Dir  Spd
km/h
Gust
km/h
Spd
kts
Gust
kts
26/04:30pm 13.7 11.9 8.1 69 2.8 SE 7 7 4 4 1023.8 1023.8 -
26/04:00pm 14.3 12.1 7.8 65 3.2 SE 9 13 5 7 1023.7 1023.7 0.0
26/03:30pm 14.7 11.9 7.0 60 3.7 SE 11 15 6 8 1023.6 1023.6 0.0
26/03:00pm 15.2 12.1 7.3 59 3.9 SE 13 19 7 10 1023.6 1023.6 0.0
26/02:30pm 14.4 11.1 8.1 66 3.1 SE 15 19 8 10 1023.9 1023.9 0.0
26/02:00pm 15.3 12.2 9.0 66 3.2 SE 15 19 8 10 1024.2 1024.2 0.0
26/01:30pm 15.2 12.3 8.2 63 3.5 SE 13 20 7 11 1024.4 1024.4 0.0
26/01:00pm 14.8 12.4 8.7 67 3.1 ESE 11 17 6 9 1025.0 1025.0 0.0
26/12:30pm 14.8 13.4 8.7 67 3.1 SE 6 9 3 5 1025.6 1025.6 0.0
26/12:00pm 14.7 13.2 9.1 69 2.8 E 7 11 4 6 1025.6 1025.6 0.0
26/11:30am 14.2 12.4 9.4 73 2.4 ESE 9 13 5 7 1025.8 1025.8 0.0
26/11:00am 13.6 12.0 8.9 73 2.4 ESE 7 11 4 6 1025.9 1025.9 0.0
26/10:30am 14.0 13.7 8.6 70 2.7 CALM 0 4 0 2 1025.9 1025.9 0.0
26/10:00am 12.5 10.9 7.8 73 2.3 WSW 6 9 3 5 1026.0 1026.0 0.0
26/09:30am 10.0 8.0 6.9 81 1.5 WNW 7 9 4 5 1025.6 1025.6 0.0
26/09:00am 7.5 5.2 5.8 89 0.8 WNW 7 11 4 6 1025.7 1025.7 0.0
26/08:30am 5.5 2.6 4.5 93 0.4 NW 9 13 5 7 1025.8 1025.8 0.0
26/08:00am 4.0 0.5 3.7 98 0.1 NNW 11 15 6 8 1025.6 1025.6 0.0
26/07:30am 2.5 -1.2 2.5 100 0.0 NW 11 13 6 7 1025.2 1025.2 0.0
26/07:00am 1.7 -1.4 1.3 97 0.2 N 7 11 4 6 1025.0 1025.0 0.0
26/06:30am 3.0 1.1 2.7 98 0.1 N 2 9 1 5 1024.7 1024.7 0.0
26/06:00am 2.9 -0.4 2.6 98 0.1 NNW 9 9 5 5 1024.0 1024.0 0.0
26/05:30am 3.0 -0.3 2.6 97 0.2 NNW 9 11 5 6 1023.9 1023.9 0.0
26/05:00am 3.6 0.0 3.2 97 0.2 NNW 11 13 6 7 1023.8 1023.8 0.0
26/04:30am 4.0 0.5 3.6 97 0.2 NW 11 13 6 7 1023.8 1023.8 0.0
26/04:00am 4.6 0.9 4.3 98 0.1 NNW 13 13 7 7 1023.9 1023.9 0.0
26/03:30am 4.3 0.9 4.0 98 0.1 NNW 11 15 6 8 1024.0 1024.0 0.0
26/03:00am 3.7 0.5 3.3 97 0.2 NW 9 13 5 7 1023.8 1023.8 0.0
26/02:30am 3.8 0.7 3.4 97 0.2 NNW 9 13 5 7 1024.0 1024.0 0.0
26/02:00am 4.0 0.9 3.6 97 0.2 NNW 9 9 5 5 1024.0 1024.0 0.0
26/01:30am 4.5 1.5 4.1 97 0.2 NNW 9 11 5 6 1023.9 1023.9 0.0
26/01:00am 4.7 1.4 4.3 97 0.2 NW 11 13 6 7 1023.6 1023.6 0.0
26/12:30am 5.2 2.3 4.6 96 0.3 NNW 9 11 5 6 1023.5 1023.5 0.0
26/12:00am 4.8 1.8 4.1 95 0.3 NW 9 11 5 6 1023.2 1023.2 0.0
 
Date/Time
CST
Temp
°C
App
Temp
°C
Dew
Point
°C
Rel
Hum
%
Delta-T
°C
Wind Press
QNH
hPa
Press
MSL
hPa
Rain since
9am
mm
Dir  Spd
km/h
Gust
km/h
Spd
kts
Gust
kts
25/11:30pm 5.4 2.5 4.7 95 0.3 NNW 9 11 5 6 1023.5 1023.5 0.0
25/11:00pm 5.2 2.3 4.5 95 0.3 NW 9 9 5 5 1023.7 1023.7 0.0
25/10:30pm 5.5 2.6 4.8 95 0.3 NW 9 9 5 5 1023.4 1023.4 0.0
25/10:00pm 5.5 3.0 4.5 93 0.4 WNW 7 9 4 5 1023.4 1023.4 0.0
25/09:30pm 6.3 3.6 5.4 94 0.4 W 9 11 5 6 1023.5 1023.5 0.0
25/09:00pm 6.4 3.9 5.0 91 0.6 W 7 9 4 5 1023.4 1023.4 0.0
25/08:30pm 6.8 3.7 5.4 91 0.6 WSW 11 13 6 7 1023.3 1023.3 0.0
25/08:00pm 7.4 4.3 5.5 88 0.8 WSW 11 13 6 7 1023.1 1023.1 0.0
25/07:30pm 8.3 6.1 6.4 88 0.9 W 7 9 4 5 1023.0 1023.0 0.0
25/07:00pm 9.4 7.6 7.0 85 1.1 SSW 6 7 3 4 1022.4 1022.4 0.0
25/06:30pm 11.9 11.2 8.6 80 1.6 SSE 2 7 1 4 1022.1 1022.1 0.0
25/06:00pm 12.7 10.8 9.0 78 1.9 S 9 13 5 7 1021.6 1021.6 0.0
25/05:30pm 13.4 10.7 8.9 74 2.3 S 13 17 7 9 1021.6 1021.6 0.0
25/05:00pm 14.0 11.4 9.2 73 2.4 SSE 13 19 7 10 1021.4 1021.4 0.0
25/04:30pm 14.0 10.7 8.2 68 2.9 SSE 15 19 8 10 1021.5 1021.5 0.0
25/04:00pm 14.5 10.4 8.7 68 2.9 SSE 20 30 11 16 1021.4 1021.4 0.0
25/03:30pm 15.7 12.4 8.0 60 3.9 ESE 15 22 8 12 1021.1 1021.1 0.0
25/03:00pm 15.8 12.7 7.1 56 4.3 SSW 13 20 7 11 1021.2 1021.2 0.0
25/02:30pm 17.3 13.2 6.2 48 5.4 W 17 30 9 16 1021.2 1021.2 0.0
25/02:00pm 16.1 11.7 6.5 53 4.7 WSW 19 24 10 13 1021.4 1021.4 0.0
25/01:30pm 16.3 11.6 5.3 48 5.2 WSW 19 28 10 15 1021.3 1021.3 0.0
25/01:00pm 16.3 11.6 5.9 50 5.0 SW 20 28 11 15 1021.4 1021.4 0.0
25/12:30pm 15.7 11.4 7.0 56 4.3 SW 19 28 10 15 1021.7 1021.7 0.0
25/12:00pm 15.5 11.3 7.5 59 4.0 SSW 19 24 10 13 1021.8 1021.8 0.0
25/11:30am 15.4 11.6 7.7 60 3.8 W 17 26 9 14 1022.0 1022.0 0.0
25/11:00am 15.0 11.4 8.5 65 3.3 W 17 24 9 13 1022.4 1022.4 0.0
25/10:30am 14.2 11.3 9.6 74 2.4 WNW 15 17 8 9 1022.5 1022.5 0.0
25/10:00am 12.4 10.0 10.1 86 1.2 NW 13 17 7 9 1022.6 1022.6 0.0
25/09:30am 10.1 7.4 8.9 92 0.6 NNW 13 17 7 9 1022.3 1022.3 0.0
25/09:00am 9.2 6.7 8.3 94 0.4 NW 11 15 6 8 1022.1 1022.1 0.0
25/08:30am 6.8 3.9 6.5 98 0.1 NW 11 13 6 7 1021.6 1021.6 0.0
25/08:00am 5.4 2.7 5.4 100 0.0 NNW 9 9 5 5 1021.3 1021.3 0.0
25/07:30am 4.5 1.6 4.5 100 0.0 NNW 9 13 5 7 1020.9 1020.9 0.0
25/07:00am 3.8 0.7 3.7 99 0.0 NW 9 11 5 6 1020.6 1020.6 0.0
25/06:30am 4.4 1.4 4.3 99 0.0 NW 9 11 5 6 1020.2 1020.2 0.0
25/06:00am 4.6 2.0 4.3 98 0.1 NW 7 11 4 6 1019.7 1019.7 0.0
25/05:30am 5.9 3.6 5.6 98 0.1 NNW 7 7 4 4 1019.5 1019.5 0.0
25/05:29am 6.0 3.7 5.7 98 0.1 NNW 7 7 4 4 1019.5 1019.5 0.0
25/05:16am 6.5 4.3 6.4 99 0.0 NNW 7 9 4 5 1019.4 1019.4 0.0
25/05:00am 6.7 4.2 6.6 99 0.0 NNW 9 11 5 6 1019.5 1019.5 0.0
25/04:30am 7.7 6.0 7.6 99 0.0 WSW 6 7 3 4 1019.5 1019.5 0.0
25/04:00am 7.4 5.5 7.4 100 0.0 W 7 9 4 5 1019.5 1019.5 0.0
25/03:41am 7.1 5.3 7.1 100 0.0 W 6 7 3 4 1019.6 1019.6 0.0
25/03:30am 6.9 5.0 6.9 100 0.0 W 6 7 3 4 1019.5 1019.5 0.0
25/03:26am 7.2 5.4 7.2 100 0.0 W 6 7 3 4 1019.5 1019.5 0.0
25/03:00am 6.5 4.0 6.5 100 0.0 W 9 13 5 7 1019.4 1019.4 0.0
25/02:30am 6.4 4.2 6.4 100 0.0 W 7 9 4 5 1019.6 1019.6 0.0
25/02:00am 7.4 4.7 7.4 100 0.0 WSW 11 13 6 7 1019.5 1019.5 0.0
25/01:30am 6.5 4.3 6.4 99 0.0 WSW 7 9 4 5 1019.4 1019.4 0.0
25/01:00am 6.9 4.5 6.9 100 0.0 WSW 9 13 5 7 1019.5 1019.5 0.0
25/12:30am 6.6 3.7 6.5 99 0.0 NW 11 13 6 7 1019.5 1019.5 0.0
25/12:00am 8.0 5.8 7.9 99 0.0 WNW 9 9 5 5 1019.4 1019.4 0.0
 
Date/Time
CST
Temp
°C
App
Temp
°C
Dew
Point
°C
Rel
Hum
%
Delta-T
°C
Wind Press
QNH
hPa
Press
MSL
hPa
Rain since
9am
mm
Dir  Spd
km/h
Gust
km/h
Spd
kts
Gust
kts
24/11:30pm 9.8 8.4 9.5 98 0.1 SW 7 9 4 5 1019.5 1019.5 0.0
24/11:00pm 9.9 7.8 9.6 98 0.1 SW 11 15 6 8 1019.5 1019.5 0.0
24/10:30pm 10.3 8.3 10.0 98 0.2 SW 11 13 6 7 1019.4 1019.4 0.0
24/10:00pm 10.8 8.8 10.3 97 0.3 SW 11 15 6 8 1019.3 1019.3 0.0
24/09:30pm 11.3 9.1 10.7 96 0.3 SSW 13 17 7 9 1018.9 1018.9 0.0
24/09:00pm 11.1 8.8 10.3 95 0.4 SSW 13 17 7 9 1019.0 1019.0 0.0
24/08:30pm 11.1 8.7 9.9 92 0.6 SW 13 17 7 9 1019.0 1019.0 0.0
24/08:00pm 11.1 8.7 10.2 94 0.5 SSW 13 17 7 9 1018.7 1018.7 0.0
24/07:30pm 10.9 9.2 10.0 94 0.5 SSW 9 11 5 6 1018.6 1018.6 0.0
24/07:00pm 11.8 10.8 10.9 94 0.5 SSW 7 11 4 6 1018.4 1018.4 0.0
24/06:30pm 11.9 10.4 10.6 92 0.7 S 9 11 5 6 1018.1 1018.1 0.0
24/06:00pm 12.5 10.7 10.9 90 0.8 S 11 13 6 7 1017.9 1017.9 0.0
24/05:30pm 13.4 12.3 11.8 90 0.9 S 9 13 5 7 1017.7 1017.7 0.0
24/05:00pm 14.2 13.1 11.9 86 1.2 SSE 9 15 5 8 1017.7 1017.7 0.0
24/04:30pm 14.8 12.9 11.8 82 1.6 SSE 13 17 7 9 1017.6 1017.6 0.0
24/04:00pm 15.6 13.9 12.5 82 1.7 SSE 13 19 7 10 1017.7 1017.7 0.0
24/03:30pm 15.5 12.9 12.1 80 1.8 S 17 22 9 12 1017.4 1017.4 0.0
24/03:00pm 16.5 13.9 12.1 75 2.4 S 17 24 9 13 1017.3 1017.3 0.0
24/02:30pm 16.0 14.0 12.6 80 1.9 SSE 15 20 8 11 1017.4 1017.4 0.0
24/02:00pm 16.2 15.0 12.7 80 1.9 SSE 11 17 6 9 1017.6 1017.6 0.0
24/01:30pm 15.8 14.1 12.5 81 1.8 SE 13 17 7 9 1017.9 1017.9 0.0
24/01:00pm 15.7 14.1 12.8 83 1.6 S 13 19 7 10 1018.1 1018.1 0.0
24/12:46pm 15.0 12.8 12.1 83 1.6 S 15 19 8 10 1018.3 1018.3 0.0
24/12:30pm 15.1 12.9 12.2 83 1.6 S 15 20 8 11 1018.5 1018.5 0.0
24/12:00pm 14.4 13.2 12.8 90 0.9 S 11 15 6 8 1018.9 1018.9 0.0
24/11:30am 13.0 12.0 12.4 96 0.3 SSW 9 13 5 7 1019.4 1019.4 0.0
24/11:28am 13.0 12.1 12.5 97 0.3 SSW 9 13 5 7 1019.4 1019.4 0.0
24/11:00am 12.5 10.8 12.5 100 0.0 SSW 13 17 7 9 1019.9 1019.9 0.0
24/10:30am 12.1 11.0 12.1 100 0.0 SSW 9 13 5 7 1019.8 1019.8 0.0
24/10:26am 12.1 11.0 12.1 100 0.0 SSW 9 13 5 7 1019.8 1019.8 0.0
24/10:11am 11.9 10.8 11.9 100 0.0 S 9 13 5 7 1019.9 1019.9 0.0
24/10:00am 11.9 10.8 11.9 100 0.0 SSW 9 13 5 7 1019.8 1019.8 0.0
24/09:30am 11.2 10.4 11.2 100 0.0 SW 6 7 3 4 1019.7 1019.7 0.0
24/09:00am 9.7 8.9 9.7 100 0.0 NNW 4 7 2 4 1019.4 1019.4 0.6
24/08:30am 8.3 6.8 8.3 100 0.0 NNW 6 7 3 4 1019.5 1019.5 0.6
24/08:00am 7.2 5.2 7.2 100 0.0 NW 7 9 4 5 1019.1 1019.1 0.6
24/07:41am 6.4 4.2 6.4 100 0.0 NW 7 9 4 5 1018.9 1018.9 0.6
24/07:30am 6.2 4.0 6.1 99 0.0 NW 7 11 4 6 1018.9 1018.9 0.6
24/07:00am 6.0 3.4 6.0 100 0.0 NW 9 11 5 6 1018.7 1018.7 0.6
24/06:30am 5.8 3.1 5.8 100 0.0 NW 9 11 5 6 1018.4 1018.4 0.6
24/06:00am 5.2 2.4 5.1 99 0.0 NW 9 11 5 6 1018.3 1018.3 0.6
24/05:30am 5.2 2.0 4.9 98 0.1 NW 11 13 6 7 1018.3 1018.3 0.6
24/05:00am 5.7 3.3 5.4 98 0.1 NW 7 11 4 6 1018.2 1018.2 0.6
24/04:30am 6.0 3.3 5.7 98 0.1 NW 9 11 5 6 1018.2 1018.2 0.6
24/04:00am 6.4 3.4 6.1 98 0.1 NNW 11 13 6 7 1018.3 1018.3 0.6
24/03:30am 6.7 4.2 6.6 99 0.0 NW 9 9 5 5 1018.2 1018.2 0.6
24/03:00am 6.6 4.0 6.2 97 0.2 NW 9 11 5 6 1018.5 1018.5 0.6
24/02:30am 6.9 4.4 6.6 98 0.1 NNW 9 13 5 7 1018.6 1018.6 0.6
24/02:00am 6.9 4.8 6.5 97 0.2 N 7 9 4 5 1018.3 1018.3 0.6
24/01:30am 7.8 6.0 7.8 100 0.0 N 7 9 4 5 1018.4 1018.4 0.6
24/01:00am 7.3 5.8 7.0 98 0.1 NNE 4 9 2 5 1018.4 1018.4 0.6
24/12:30am 7.8 6.1 7.4 97 0.2 NNW 6 9 3 5 1018.5 1018.5 0.6
24/12:00am 8.7 8.2 7.8 94 0.4 CALM 0 6 0 3 1018.8 1018.8 0.6
 
Date/Time
CST
Temp
°C
App
Temp
°C
Dew
Point
°C
Rel
Hum
%
Delta-T
°C
Wind Press
QNH
hPa
Press
MSL
hPa
Rain since
9am
mm
Dir  Spd
km/h
Gust
km/h
Spd
kts
Gust
kts
23/11:30pm 9.3 7.5 8.1 92 0.6 NW 7 13 4 7 1018.9 1018.9 0.6
23/11:00pm 9.4 7.7 8.3 93 0.5 NNW 7 11 4 6 1018.7 1018.7 0.6
23/10:30pm 9.6 6.4 8.5 93 0.5 NNW 15 17 8 9 1018.8 1018.8 0.6
23/10:00pm 10.5 8.2 8.9 90 0.8 NNW 11 13 6 7 1018.8 1018.8 0.6
23/09:30pm 11.1 8.1 9.2 88 0.9 NW 15 17 8 9 1019.0 1019.0 0.6
23/09:00pm 11.3 8.5 9.9 91 0.7 NW 15 17 8 9 1019.0 1019.0 0.6
23/08:30pm 11.5 9.4 9.9 90 0.8 NW 11 15 6 8 1018.5 1018.5 0.6
23/08:00pm 11.6 9.6 10.2 91 0.7 NW 11 13 6 7 1018.3 1018.3 0.6
23/07:30pm 11.9 10.0 10.6 92 0.7 WNW 11 13 6 7 1018.3 1018.3 0.6
23/07:00pm 12.3 10.5 10.7 90 0.8 NW 11 13 6 7 1018.0 1018.0 0.6
23/06:30pm 12.8 10.6 10.7 87 1.1 NNW 13 17 7 9 1017.4 1017.4 0.6
23/06:00pm 12.9 10.7 10.8 87 1.1 N 13 17 7 9 1017.2 1017.2 0.6
23/05:30pm 13.4 10.9 10.9 85 1.3 N 15 19 8 10 1017.0 1017.0 0.6
23/05:00pm 13.2 10.5 11.6 90 0.9 N 17 20 9 11 1017.1 1017.1 0.6

Other Formats:

Comma delimited format used in spreadsheet applications
http://www.bom.gov.au/fwo/IDS60801/IDS60801.95664.axf

JavaScript Object Notation format (JSON) in row-major order
http://www.bom.gov.au/fwo/IDS60801/IDS60801.95664.json